sensor_id;sensor_type;location;lat;lon;timestamp;P1;P2;P0
56360;PMS7003;42611;51.132;13.588;2023-11-19T09:08:01;0.6;0.1;
56360;PMS7003;42611;51.132;13.588;2023-11-19T09:18:01;0.9;0.4;
56360;PMS7003;42611;51.132;13.588;2023-11-19T09:23:01;0.4;0.4;
56360;PMS7003;42611;51.132;13.588;2023-11-19T09:38:06;0.5;0.4;
56360;PMS7003;42611;51.132;13.588;2023-11-19T09:43:01;0.2;0.1;
56360;PMS7003;42611;51.132;13.588;2023-11-19T09:48:01;0.3;0.1;
56360;PMS7003;42611;51.132;13.588;2023-11-19T09:58:01;0.6;0.2;
56360;PMS7003;42611;51.132;13.588;2023-11-19T10:03:02;0.9;0.5;
56360;PMS7003;42611;51.132;13.588;2023-11-19T10:08:01;0.8;0.5;
56360;PMS7003;42611;51.132;13.588;2023-11-19T10:23:02;0.4;0.4;
56360;PMS7003;42611;51.132;13.588;2023-11-19T10:39:01;0.4;0.2;
56360;PMS7003;42611;51.132;13.588;2023-11-19T10:54:03;0.4;0.2;
56360;PMS7003;42611;51.132;13.588;2023-11-19T10:59:02;0.5;0.3;
56360;PMS7003;42611;51.132;13.588;2023-11-19T11:04:01;0.2;0.1;
56360;PMS7003;42611;51.132;13.588;2023-11-19T11:14:01;0.4;0.3;
56360;PMS7003;42611;51.132;13.588;2023-11-19T11:24:08;0.3;0.2;
56360;PMS7003;42611;51.132;13.588;2023-11-19T11:29:02;0.2;0.2;
56360;PMS7003;42611;51.132;13.588;2023-11-19T11:49:05;0.2;0.0;
56360;PMS7003;42611;51.132;13.588;2023-11-19T11:54:01;0.4;0.0;
56360;PMS7003;42611;51.132;13.588;2023-11-19T12:04:02;0.5;0.1;
56360;PMS7003;42611;51.132;13.588;2023-11-19T12:14:01;0.3;0.1;
56360;PMS7003;42611;51.132;13.588;2023-11-19T12:19:02;0.7;0.3;
56360;PMS7003;42611;51.132;13.588;2023-11-19T12:29:02;1.2;0.8;
56360;PMS7003;42611;51.132;13.588;2023-11-19T12:34:05;1.4;1.0;
56360;PMS7003;42611;51.132;13.588;2023-11-19T12:39:01;1.9;1.4;
56360;PMS7003;42611;51.132;13.588;2023-11-19T12:44:09;1.7;1.6;
56360;PMS7003;42611;51.132;13.588;2023-11-19T12:49:01;2.0;1.9;
56360;PMS7003;42611;51.132;13.588;2023-11-19T12:59:17;2.6;2.0;
56360;PMS7003;42611;51.132;13.588;2023-11-19T13:04:19;2.8;2.3;
56360;PMS7003;42611;51.132;13.588;2023-11-19T13:14:03;2.6;2.0;
56360;PMS7003;42611;51.132;13.588;2023-11-19T13:19:02;2.5;2.1;
56360;PMS7003;42611;51.132;13.588;2023-11-19T13:24:01;2.4;2.2;
56360;PMS7003;42611;51.132;13.588;2023-11-19T13:34:01;2.5;1.9;
56360;PMS7003;42611;51.132;13.588;2023-11-19T13:39:01;2.9;2.3;
56360;PMS7003;42611;51.132;13.588;2023-11-19T13:49:01;2.4;1.8;
56360;PMS7003;42611;51.132;13.588;2023-11-19T13:54:01;2.5;1.7;
56360;PMS7003;42611;51.132;13.588;2023-11-19T13:59:12;2.7;1.6;
56360;PMS7003;42611;51.132;13.588;2023-11-19T14:04:02;2.4;1.4;
56360;PMS7003;42611;51.132;13.588;2023-11-19T14:09:01;2.2;1.4;
56360;PMS7003;42611;51.132;13.588;2023-11-19T14:14:01;2.8;2.0;
56360;PMS7003;42611;51.132;13.588;2023-11-19T14:19:01;2.7;2.0;
56360;PMS7003;42611;51.132;13.588;2023-11-19T14:24:01;3.0;2.3;
56360;PMS7003;42611;51.132;13.588;2023-11-19T14:29:01;3.1;2.3;
56360;PMS7003;42611;51.132;13.588;2023-11-19T14:34:03;3.6;2.4;
56360;PMS7003;42611;51.132;13.588;2023-11-19T14:44:01;4.4;2.2;
56360;PMS7003;42611;51.132;13.588;2023-11-19T14:49:01;4.6;2.3;
56360;PMS7003;42611;51.132;13.588;2023-11-19T14:59:01;4.9;3.1;
56360;PMS7003;42611;51.132;13.588;2023-11-19T15:04:07;5.4;3.9;
56360;PMS7003;42611;51.132;13.588;2023-11-19T15:09:01;4.8;3.8;
56360;PMS7003;42611;51.132;13.588;2023-11-19T15:14:01;4.3;3.8;
56360;PMS7003;42611;51.132;13.588;2023-11-19T15:19:02;5.2;4.0;
56360;PMS7003;42611;51.132;13.588;2023-11-19T15:24:02;4.6;3.6;
56360;PMS7003;42611;51.132;13.588;2023-11-19T15:29:01;4.4;3.4;
56360;PMS7003;42611;51.132;13.588;2023-11-19T15:34:02;4.3;3.6;
56360;PMS7003;42611;51.132;13.588;2023-11-19T15:39:02;4.5;3.8;
56360;PMS7003;42611;51.132;13.588;2023-11-19T15:44:01;3.9;3.4;
56360;PMS7003;42611;51.132;13.588;2023-11-19T15:49:01;3.8;3.2;
56360;PMS7003;42611;51.132;13.588;2023-11-19T15:54:01;3.7;3.1;
56360;PMS7003;42611;51.132;13.588;2023-11-19T15:59:02;3.8;3.0;
56360;PMS7003;42611;51.132;13.588;2023-11-19T16:04:02;3.6;2.8;
56360;PMS7003;42611;51.132;13.588;2023-11-19T16:09:02;3.5;3.2;
56360;PMS7003;42611;51.132;13.588;2023-11-19T16:14:01;4.3;3.7;
56360;PMS7003;42611;51.132;13.588;2023-11-19T16:19:07;4.9;3.8;
56360;PMS7003;42611;51.132;13.588;2023-11-19T16:24:01;5.1;3.8;
56360;PMS7003;42611;51.132;13.588;2023-11-19T16:29:02;5.5;4.2;
56360;PMS7003;42611;51.132;13.588;2023-11-19T16:34:01;5.6;4.2;
56360;PMS7003;42611;51.132;13.588;2023-11-19T16:39:04;5.8;4.4;
56360;PMS7003;42611;51.132;13.588;2023-11-19T16:44:03;5.1;4.2;
56360;PMS7003;42611;51.132;13.588;2023-11-19T16:49:01;5.0;4.4;
56360;PMS7003;42611;51.132;13.588;2023-11-19T16:54:02;5.7;4.4;
56360;PMS7003;42611;51.132;13.588;2023-11-19T16:59:02;5.4;4.1;
56360;PMS7003;42611;51.132;13.588;2023-11-19T17:04:03;4.6;3.6;
56360;PMS7003;42611;51.132;13.588;2023-11-19T17:09:01;6.0;4.7;
56360;PMS7003;42611;51.132;13.588;2023-11-19T17:14:01;6.1;4.9;
56360;PMS7003;42611;51.132;13.588;2023-11-19T17:19:01;6.2;5.4;
56360;PMS7003;42611;51.132;13.588;2023-11-19T17:24:01;6.6;5.4;
56360;PMS7003;42611;51.132;13.588;2023-11-19T17:29:01;7.6;6.2;
56360;PMS7003;42611;51.132;13.588;2023-11-19T17:34:01;7.0;5.6;
56360;PMS7003;42611;51.132;13.588;2023-11-19T17:39:02;7.1;5.4;
56360;PMS7003;42611;51.132;13.588;2023-11-19T17:44:01;6.8;4.7;
56360;PMS7003;42611;51.132;13.588;2023-11-19T17:49:01;7.3;5.3;
56360;PMS7003;42611;51.132;13.588;2023-11-19T17:54:01;6.6;4.6;
56360;PMS7003;42611;51.132;13.588;2023-11-19T17:59:01;5.8;3.8;
56360;PMS7003;42611;51.132;13.588;2023-11-19T18:04:01;5.0;3.4;
56360;PMS7003;42611;51.132;13.588;2023-11-19T18:09:01;3.7;3.0;
56360;PMS7003;42611;51.132;13.588;2023-11-19T18:14:01;3.4;2.6;
56360;PMS7003;42611;51.132;13.588;2023-11-19T18:19:01;3.1;2.8;
56360;PMS7003;42611;51.132;13.588;2023-11-19T18:24:01;2.9;2.6;
56360;PMS7003;42611;51.132;13.588;2023-11-19T18:29:01;3.1;2.6;
56360;PMS7003;42611;51.132;13.588;2023-11-19T18:34:02;3.7;2.8;
56360;PMS7003;42611;51.132;13.588;2023-11-19T18:39:01;3.5;2.3;
56360;PMS7003;42611;51.132;13.588;2023-11-19T18:44:01;3.4;2.2;
56360;PMS7003;42611;51.132;13.588;2023-11-19T18:49:02;4.0;2.3;
56360;PMS7003;42611;51.132;13.588;2023-11-19T18:54:01;3.8;2.0;
56360;PMS7003;42611;51.132;13.588;2023-11-19T18:59:01;4.4;2.3;
56360;PMS7003;42611;51.132;13.588;2023-11-19T19:04:02;3.9;2.2;
56360;PMS7003;42611;51.132;13.588;2023-11-19T19:14:04;3.3;1.4;
56360;PMS7003;42611;51.132;13.588;2023-11-19T19:19:01;3.2;1.8;
56360;PMS7003;42611;51.132;13.588;2023-11-19T19:24:01;2.5;1.5;
56360;PMS7003;42611;51.132;13.588;2023-11-19T19:29:01;2.7;1.9;
56360;PMS7003;42611;51.132;13.588;2023-11-19T19:34:01;2.5;2.2;
56360;PMS7003;42611;51.132;13.588;2023-11-19T19:39:01;3.0;2.6;
56360;PMS7003;42611;51.132;13.588;2023-11-19T19:44:01;2.8;2.3;
56360;PMS7003;42611;51.132;13.588;2023-11-19T19:49:01;2.5;2.3;
56360;PMS7003;42611;51.132;13.588;2023-11-19T19:54:01;2.3;2.1;
56360;PMS7003;42611;51.132;13.588;2023-11-19T19:59:01;2.1;1.7;
56360;PMS7003;42611;51.132;13.588;2023-11-19T20:04:02;1.9;1.7;
56360;PMS7003;42611;51.132;13.588;2023-11-19T20:09:01;3.1;2.1;
56360;PMS7003;42611;51.132;13.588;2023-11-19T20:14:01;2.9;1.9;
56360;PMS7003;42611;51.132;13.588;2023-11-19T20:19:01;3.3;2.1;
56360;PMS7003;42611;51.132;13.588;2023-11-19T20:24:01;3.9;2.3;
56360;PMS7003;42611;51.132;13.588;2023-11-19T20:39:02;4.0;2.3;
56360;PMS7003;42611;51.132;13.588;2023-11-19T20:44:02;3.6;2.0;
56360;PMS7003;42611;51.132;13.588;2023-11-19T20:49:01;2.6;1.7;
56360;PMS7003;42611;51.132;13.588;2023-11-19T20:54:01;2.5;1.8;
56360;PMS7003;42611;51.132;13.588;2023-11-19T20:59:01;1.5;1.3;
56360;PMS7003;42611;51.132;13.588;2023-11-19T21:04:02;1.9;1.0;
56360;PMS7003;42611;51.132;13.588;2023-11-19T21:09:01;2.4;1.1;
56360;PMS7003;42611;51.132;13.588;2023-11-19T21:14:01;2.5;1.2;
56360;PMS7003;42611;51.132;13.588;2023-11-19T21:24:01;2.9;1.6;
56360;PMS7003;42611;51.132;13.588;2023-11-19T21:34:01;2.8;1.9;
56360;PMS7003;42611;51.132;13.588;2023-11-19T21:39:01;3.2;2.2;
56360;PMS7003;42611;51.132;13.588;2023-11-19T21:44:02;3.3;2.3;
56360;PMS7003;42611;51.132;13.588;2023-11-19T21:49:01;3.0;2.2;
56360;PMS7003;42611;51.132;13.588;2023-11-19T21:54:01;2.5;2.2;
56360;PMS7003;42611;51.132;13.588;2023-11-19T21:59:01;2.0;1.9;
56360;PMS7003;42611;51.132;13.588;2023-11-19T22:04:02;2.2;1.7;
56360;PMS7003;42611;51.132;13.588;2023-11-19T22:09:01;1.9;1.4;
56360;PMS7003;42611;51.132;13.588;2023-11-19T22:14:01;2.4;1.2;
56360;PMS7003;42611;51.132;13.588;2023-11-19T22:19:02;2.3;0.9;
56360;PMS7003;42611;51.132;13.588;2023-11-19T22:24:01;2.1;0.8;
56360;PMS7003;42611;51.132;13.588;2023-11-19T22:29:02;1.3;0.5;
56360;PMS7003;42611;51.132;13.588;2023-11-19T22:34:06;1.8;0.6;
56360;PMS7003;42611;51.132;13.588;2023-11-19T22:39:01;1.2;0.6;
56360;PMS7003;42611;51.132;13.588;2023-11-19T22:44:01;1.4;0.8;
56360;PMS7003;42611;51.132;13.588;2023-11-19T22:49:01;1.6;1.0;
56360;PMS7003;42611;51.132;13.588;2023-11-19T22:54:01;2.1;1.4;
56360;PMS7003;42611;51.132;13.588;2023-11-19T22:59:01;1.7;1.4;
56360;PMS7003;42611;51.132;13.588;2023-11-19T23:05:02;1.2;1.2;
56360;PMS7003;42611;51.132;13.588;2023-11-19T23:10:04;1.1;1.1;
56360;PMS7003;42611;51.132;13.588;2023-11-19T23:15:02;2.3;1.3;
56360;PMS7003;42611;51.132;13.588;2023-11-19T23:20:09;2.0;1.2;
56360;PMS7003;42611;51.132;13.588;2023-11-19T23:36:01;2.4;1.0;
56360;PMS7003;42611;51.132;13.588;2023-11-19T23:41:01;2.2;0.9;
56360;PMS7003;42611;51.132;13.588;2023-11-19T23:46:01;2.0;0.7;
56360;PMS7003;42611;51.132;13.588;2023-11-19T23:56:01;2.5;1.1;
